Delhi, Michigan
Current Conditions -  °F | °C
As of 8:53 PM on Saturday 22 Nov 2014 (Local Time) from KARB Reporting Station
Overcast Overcast  
Wind Chill: 43°   Ceiling: 2600
Heat Index: 47°   Visibility: 9mi
Dew Point: 42°   Wind: 9mph
Humidity: 83%   Direction: 220°SW
Pressure: 29.94"   Gusts: NA
Location:  42.2601°N, 83.8448°W
Report Text: KARB 230153Z AUTO 22008KT 9SM OVC026 08/06 A2994 RMK AO2 RAE0059 SLP144 P0000 T00830056
Loading
Personal Weather Stations






























Interactive Weather Map New forecast layout! Learn more

10-Day Weather Forecast

Advertisements
Track Severe Weather on mobile